»·PEaware :: AAL486 KPHX-KSNA

AAL486 :: KPHX-KSNA

FLIGHT INFORMATION

Flight Status: Arrived
Operator:
American Airlines
More flights by this operator :: More flights under this callsign
Pilot: Henderson P. (1210)
Aircraft: AIRBUS A319
(A319)
More flights by this aircraft type
Origin: KPHX Phoenix Sky Harbor Intl
United States
Destination: KSNA John Wayne-Orange Co
United States
More flights between these airports :: More routes between these airports
Route: KEENS2 HRRBR EMLLD DSNEE4
File this flight plan on PilotEdge
Remarks:
Altitude:
(Current/Filed)
24,000ft
Speed:
(Current/Filed)
486kts
Departed: 07-Nov-18 08:06 AM
Arrived: 07-Nov-18 09:13 AM
Distance/Time
Traveled:
293nm/1:07
Distance/Time
To Go:
Arrived

Flight Plot

Page will automatically refresh every two minutes.

Flight plan parsing failed; only flown route is shown


Map Options




Map Legend


Flown Route
Filed Route
Departure Airport
Arrival Airport
Navaid (VOR, NDB)
Fix

Horizontal Profiles

Position Reports

Time Latitude Longitude Heading Altitude Ground
Speed
07-Nov-18 07:54 33.438019 -111.999905 107 1149ft 2kts
07-Nov-18 07:55 33.437815 -112.000328 0 1149ft 0kts
07-Nov-18 07:56 33.437815 -112.000328 0 1149ft 0kts
07-Nov-18 07:57 33.437815 -112.000328 0 1149ft 0kts
07-Nov-18 07:58 33.437816 -112.000328 0 1149ft 0kts
07-Nov-18 07:59 33.438985 -112.001012 272 1149ft 11kts
07-Nov-18 08:00 33.436286 -112.003793 180 1149ft 21kts
07-Nov-18 08:01 33.432121 -112.005399 270 1149ft 18kts
07-Nov-18 08:02 33.432099 -112.012664 273 1149ft 22kts
07-Nov-18 08:03 33.432121 -112.020107 271 1149ft 25kts
07-Nov-18 08:04 33.432098 -112.026900 241 1149ft 5kts
07-Nov-18 08:05 33.431899 -112.026992 179 1149ft 0kts
07-Nov-18 08:06 33.431897 -112.026992 179 1149ft 0kts
07-Nov-18 08:07 33.431896 -112.026992 179 1149ft 0kts
07-Nov-18 08:08 33.431080 -112.026718 115 1149ft 11kts
07-Nov-18 08:09 33.431216 -111.991814 87 1803ft 159kts
07-Nov-18 08:10 33.433379 -111.933229 88 3702ft 199kts
07-Nov-18 08:11 33.423345 -111.861511 141 6136ft 240kts
07-Nov-18 08:12 33.362362 -111.860561 226 9189ft 250kts
07-Nov-18 08:13 33.357198 -111.940296 277 12270ft 253kts
07-Nov-18 08:14 33.367102 -112.036926 279 13323ft 333kts
07-Nov-18 08:15 33.385308 -112.157236 279 14152ft 395kts
07-Nov-18 08:16 33.404572 -112.288323 279 16380ft 403kts
07-Nov-18 08:17 33.424148 -112.421712 279 18416ft 410kts
07-Nov-18 08:18 33.443893 -112.557638 279 20212ft 418kts
07-Nov-18 08:19 33.451649 -112.697340 271 21799ft 425kts
07-Nov-18 08:20 33.459690 -112.839424 282 23160ft 432kts
07-Nov-18 08:21 33.486827 -112.980974 282 24064ft 437kts
07-Nov-18 08:22 33.513039 -113.123290 282 24064ft 437kts
07-Nov-18 08:23 33.539335 -113.265639 282 24071ft 437kts
07-Nov-18 08:24 33.561064 -113.384013 282 24067ft 437kts
07-Nov-18 08:25 33.591415 -113.550448 283 24063ft 438kts
07-Nov-18 08:26 33.618183 -113.693067 283 24059ft 438kts
07-Nov-18 08:27 33.640043 -113.811537 283 24068ft 436kts
07-Nov-18 08:28 33.690288 -113.970040 294 24067ft 437kts
07-Nov-18 08:29 33.741368 -114.102694 294 24061ft 436kts
07-Nov-18 08:30 33.767264 -114.219281 279 24059ft 439kts
07-Nov-18 08:31 33.786369 -114.388829 279 24053ft 439kts
07-Nov-18 08:32 33.800432 -114.510306 279 24049ft 440kts
07-Nov-18 08:33 33.817085 -114.655933 278 24048ft 440kts
07-Nov-18 08:34 33.836310 -114.826168 278 24047ft 442kts
07-Nov-18 08:35 33.852699 -114.972823 278 24049ft 442kts
07-Nov-18 08:36 33.866328 -115.095300 278 24052ft 443kts
07-Nov-18 08:37 33.882457 -115.242434 278 24059ft 444kts
07-Nov-18 08:38 33.898458 -115.389530 278 24065ft 444kts
07-Nov-18 08:39 33.914261 -115.536906 278 24070ft 443kts
07-Nov-18 08:40 33.928703 -115.684179 276 24075ft 444kts
07-Nov-18 08:41 33.939209 -115.832705 276 24078ft 444kts
07-Nov-18 08:42 33.949594 -115.980815 276 24081ft 444kts
07-Nov-18 08:43 33.959782 -116.128966 276 24086ft 444kts
07-Nov-18 08:44 33.956425 -116.274571 263 24079ft 408kts
07-Nov-18 08:45 33.941465 -116.390115 264 23774ft 366kts
07-Nov-18 08:46 33.926746 -116.510451 264 21839ft 358kts
07-Nov-18 08:47 33.911797 -116.627865 264 19934ft 351kts
07-Nov-18 08:48 33.896864 -116.743001 264 18056ft 345kts
07-Nov-18 08:49 33.884233 -116.856201 265 16125ft 338kts
07-Nov-18 08:50 33.872053 -116.967271 265 14262ft 333kts
07-Nov-18 08:51 33.860204 -117.073891 265 13421ft 305kts
07-Nov-18 08:52 33.849845 -117.166892 266 12712ft 260kts
07-Nov-18 08:53 33.840226 -117.252847 265 11011ft 258kts
07-Nov-18 08:54 33.831607 -117.329114 264 9747ft 255kts
07-Nov-18 08:55 33.822020 -117.413769 264 8498ft 255kts
07-Nov-18 08:56 33.805813 -117.486786 249 7689ft 240kts
07-Nov-18 08:57 33.807153 -117.564928 300 7619ft 268kts
07-Nov-18 08:58 33.842891 -117.637741 301 6815ft 237kts
07-Nov-18 08:59 33.872753 -117.698067 301 5559ft 236kts
07-Nov-18 09:00 33.906102 -117.764010 301 4210ft 232kts
07-Nov-18 09:01 33.938012 -117.825313 301 3526ft 195kts
07-Nov-18 09:02 33.967285 -117.880393 301 3007ft 195kts
07-Nov-18 09:03 33.995848 -117.933278 309 3004ft 196kts
07-Nov-18 09:04 34.032734 -117.914715 101 3008ft 191kts
07-Nov-18 09:05 34.016522 -117.860991 111 2989ft 191kts
07-Nov-18 09:06 33.997376 -117.801267 111 3013ft 191kts
07-Nov-18 09:07 33.978236 -117.741543 111 3026ft 191kts
07-Nov-18 09:08 33.951159 -117.690814 180 2988ft 187kts
07-Nov-18 09:09 33.906893 -117.721821 209 3038ft 187kts
07-Nov-18 09:10 33.860906 -117.751233 208 3023ft 187kts
07-Nov-18 09:11 33.814854 -117.780523 208 2937ft 188kts
07-Nov-18 09:12 33.775693 -117.805403 208 2163ft 132kts
07-Nov-18 09:13 33.743026 -117.826142 207 1435ft 132kts
07-Nov-18 09:14 33.710663 -117.846721 208 743ft 131kts
07-Nov-18 09:15 33.678610 -117.867029 207 72ft 124kts
07-Nov-18 09:16 33.669028 -117.871379 124 70ft 7kts
07-Nov-18 09:17 33.668957 -117.871184 93 70ft 4kts
07-Nov-18 09:18 33.671831 -117.868310 31 70ft 20kts
07-Nov-18 09:19 33.676693 -117.864845 26 70ft 22kts
07-Nov-18 09:20 33.680985 -117.862111 42 70ft 5kts
07-Nov-18 09:21 33.680697 -117.861514 138 70ft 0kts
07-Nov-18 09:22 33.680697 -117.861514 138 70ft 0kts
07-Nov-18 09:23 33.680697 -117.861514 138 70ft 0kts
07-Nov-18 09:24 33.680697 -117.861514 138 70ft 0kts
07-Nov-18 09:25 33.680697 -117.861514 138 70ft 0kts
07-Nov-18 09:26 33.680697 -117.861514 138 70ft 0kts
07-Nov-18 09:27 33.680697 -117.861514 138 70ft 0kts
07-Nov-18 09:28 33.680697 -117.861514 138 70ft 0kts
07-Nov-18 09:29 33.680697 -117.861514 138 70ft 0kts
07-Nov-18 09:30 33.680697 -117.861514 138 70ft 0kts

Navigation Log

Ident Type
Flight plan parsing failed, navigation log unavailable